createdAt,value
2017-10-26T00:01:54.431Z,70.80
2017-10-26T00:04:22.745Z,70.80
2017-10-26T00:06:50.256Z,70.80
2017-10-26T00:09:17.814Z,70.70
2017-10-26T00:11:45.333Z,70.80
2017-10-26T00:14:12.847Z,70.90
2017-10-26T00:16:40.379Z,70.90
2017-10-26T00:19:07.895Z,70.90
2017-10-26T00:21:35.469Z,70.90
2017-10-26T00:24:02.970Z,70.90
2017-10-26T00:26:30.503Z,71.10
2017-10-26T00:28:58.064Z,71.10
2017-10-26T00:31:25.660Z,71.10
2017-10-26T00:33:53.231Z,71.10
2017-10-26T00:36:21.536Z,71.10
2017-10-26T00:38:49.083Z,71.10
2017-10-26T00:41:17.384Z,71.20
2017-10-26T00:43:44.893Z,71.20
2017-10-26T00:46:12.715Z,71.10
2017-10-26T00:48:40.222Z,71.00
2017-10-26T00:51:07.750Z,71.00
2017-10-26T00:53:35.298Z,71.10
2017-10-26T00:56:02.812Z,71.80
2017-10-26T00:58:30.610Z,71.00
2017-10-26T01:00:58.130Z,71.00
2017-10-26T01:03:25.765Z,71.00
2017-10-26T01:05:53.315Z,71.10
2017-10-26T01:08:20.832Z,71.20
2017-10-26T01:10:49.141Z,71.50
2017-10-26T01:13:16.659Z,71.40
2017-10-26T01:15:44.979Z,71.70
2017-10-26T01:18:12.537Z,71.60
2017-10-26T01:20:40.063Z,71.70
2017-10-26T01:23:08.387Z,71.60
2017-10-26T01:25:35.901Z,71.60
2017-10-26T01:28:04.176Z,71.60
2017-10-26T01:30:32.487Z,71.60
2017-10-26T01:33:00.006Z,71.60
2017-10-26T01:35:27.553Z,71.60
2017-10-26T01:37:55.073Z,71.80
2017-10-26T01:40:22.589Z,71.60
2017-10-26T01:42:50.132Z,71.50
2017-10-26T01:45:17.669Z,71.50
2017-10-26T01:47:45.467Z,71.60
2017-10-26T01:50:13.867Z,71.70
2017-10-26T01:52:42.148Z,71.60
2017-10-26T01:55:10.478Z,71.60
2017-10-26T01:57:38.001Z,71.70
2017-10-26T02:00:05.559Z,71.70
2017-10-26T02:02:33.083Z,71.70
2017-10-26T02:05:00.598Z,71.70
2017-10-26T02:07:28.148Z,71.70
2017-10-26T02:09:55.668Z,71.80
2017-10-26T02:12:23.993Z,71.90
2017-10-26T02:14:51.523Z,72.00
2017-10-26T02:17:19.801Z,72.10
2017-10-26T02:19:48.116Z,72.20
2017-10-26T02:22:15.639Z,72.20
2017-10-26T02:24:43.948Z,72.40
2017-10-26T02:27:11.455Z,72.40
2017-10-26T02:30:00.051Z,72.40
2017-10-26T02:32:27.576Z,72.70
2017-10-26T02:34:55.878Z,72.30
2017-10-26T02:37:23.417Z,72.30
2017-10-26T02:39:51.698Z,72.30
2017-10-26T02:42:20.015Z,72.40
2017-10-26T02:44:47.521Z,72.40
2017-10-26T02:47:15.071Z,72.30
2017-10-26T02:49:42.617Z,72.50
2017-10-26T02:52:10.130Z,72.40
2017-10-26T02:54:38.473Z,73.10
2017-10-26T02:57:05.986Z,72.30
2017-10-26T02:59:33.517Z,72.40
2017-10-26T03:02:01.847Z,72.50
2017-10-26T03:04:29.378Z,72.60
2017-10-26T03:06:57.257Z,72.50
2017-10-26T03:09:24.771Z,72.60
2017-10-26T03:11:52.278Z,72.50
2017-10-26T03:14:19.897Z,72.30
2017-10-26T03:16:48.185Z,72.30
2017-10-26T03:19:16.488Z,72.20
2017-10-26T03:21:44.004Z,72.20
2017-10-26T03:24:11.518Z,72.20
2017-10-26T03:26:39.069Z,72.20
2017-10-26T03:29:06.578Z,72.20
2017-10-26T03:31:34.414Z,72.30
2017-10-26T03:34:01.926Z,72.20
2017-10-26T03:36:30.202Z,72.20
2017-10-26T03:38:58.507Z,72.20
2017-10-26T03:41:26.046Z,72.20
2017-10-26T03:43:54.635Z,72.20
2017-10-26T03:46:22.908Z,72.20
2017-10-26T03:48:51.186Z,72.10
2017-10-26T03:51:19.499Z,72.10
2017-10-26T03:53:47.020Z,72.00
2017-10-26T03:56:15.601Z,72.10
2017-10-26T03:58:43.885Z,72.10
2017-10-26T04:01:12.163Z,72.20
2017-10-26T04:03:40.477Z,72.30
2017-10-26T04:06:07.984Z,72.30
2017-10-26T04:08:36.330Z,72.10
2017-10-26T04:11:03.832Z,72.10
2017-10-26T04:13:32.105Z,72.10
2017-10-26T04:16:00.440Z,72.10
2017-10-26T04:18:27.957Z,72.10
2017-10-26T04:20:56.559Z,72.30
2017-10-26T04:23:24.109Z,72.40
2017-10-26T04:25:52.386Z,72.40
2017-10-26T04:28:19.927Z,72.40
2017-10-26T04:30:48.196Z,73.00
2017-10-26T04:33:16.012Z,72.30
2017-10-26T04:35:43.537Z,72.30
2017-10-26T04:38:11.822Z,72.40
2017-10-26T04:40:40.140Z,72.30
2017-10-26T04:43:07.666Z,72.30
2017-10-26T04:45:35.981Z,72.20
2017-10-26T04:48:03.506Z,72.10
2017-10-26T04:50:31.036Z,72.20
2017-10-26T04:52:58.587Z,72.20
2017-10-26T04:55:26.105Z,72.20
2017-10-26T04:57:53.653Z,72.10
2017-10-26T05:00:21.155Z,72.10
2017-10-26T05:02:48.683Z,72.20
2017-10-26T05:05:16.231Z,72.20
2017-10-26T05:07:43.769Z,72.30
2017-10-26T05:10:12.389Z,72.10
2017-10-26T05:12:39.912Z,72.20
2017-10-26T05:15:07.439Z,72.10
2017-10-26T05:17:34.973Z,72.10
2017-10-26T05:20:02.495Z,72.20
2017-10-26T05:22:30.834Z,72.40
2017-10-26T05:24:58.350Z,72.40
2017-10-26T05:27:25.900Z,72.50
2017-10-26T05:29:54.215Z,72.40
2017-10-26T05:32:22.498Z,72.40
2017-10-26T05:34:50.054Z,72.50
2017-10-26T05:37:17.587Z,72.50
2017-10-26T05:39:45.130Z,72.60
2017-10-26T05:42:13.432Z,72.60
2017-10-26T05:44:40.962Z,72.60
2017-10-26T05:47:08.525Z,72.60
2017-10-26T05:49:36.820Z,72.60
2017-10-26T05:52:05.090Z,72.60
2017-10-26T05:54:33.398Z,72.60
2017-10-26T05:57:00.923Z,72.60
2017-10-26T05:59:28.498Z,72.70
2017-10-26T06:01:56.778Z,72.70
2017-10-26T06:04:24.303Z,72.70
2017-10-26T06:06:51.909Z,72.60
2017-10-26T06:09:19.421Z,72.70
2017-10-26T06:11:46.983Z,72.70
2017-10-26T06:14:14.515Z,72.70
2017-10-26T06:16:42.030Z,72.70
2017-10-26T06:19:10.337Z,72.70
2017-10-26T06:21:37.886Z,72.70
2017-10-26T06:24:05.435Z,72.60
2017-10-26T06:26:32.948Z,72.60
2017-10-26T06:29:00.468Z,72.80
2017-10-26T06:31:28.011Z,72.60
2017-10-26T06:33:56.295Z,72.50
2017-10-26T06:36:23.850Z,72.50
2017-10-26T06:38:51.373Z,72.50
2017-10-26T06:41:18.879Z,72.50
2017-10-26T06:43:46.420Z,72.50
2017-10-26T06:46:14.704Z,72.50
2017-10-26T06:48:43.035Z,72.50
2017-10-26T06:51:10.570Z,72.50
2017-10-26T06:53:38.103Z,72.50
2017-10-26T06:56:06.409Z,72.30
2017-10-26T06:58:33.927Z,72.30
2017-10-26T07:01:02.520Z,72.40
2017-10-26T07:03:30.827Z,72.30
2017-10-26T07:05:58.342Z,72.40
2017-10-26T07:08:26.678Z,72.30
2017-10-26T07:10:54.197Z,72.30
2017-10-26T07:13:21.772Z,72.30
2017-10-26T07:15:49.321Z,72.30
2017-10-26T07:18:17.609Z,72.10
2017-10-26T07:20:45.154Z,72.10
2017-10-26T07:23:13.434Z,71.90
2017-10-26T07:25:41.744Z,71.60
2017-10-26T07:28:09.271Z,71.60
2017-10-26T07:30:37.558Z,71.60
2017-10-26T07:33:05.110Z,71.60
2017-10-26T07:35:33.401Z,71.50
2017-10-26T07:38:01.723Z,71.60
2017-10-26T07:40:29.237Z,71.60
2017-10-26T07:42:56.775Z,71.60
2017-10-26T07:45:24.317Z,71.60
2017-10-26T07:47:51.838Z,71.70
2017-10-26T07:50:19.382Z,71.80
2017-10-26T07:52:46.913Z,72.50
2017-10-26T07:55:15.199Z,71.60
2017-10-26T07:57:43.616Z,71.30
2017-10-26T08:00:11.147Z,71.40
2017-10-26T08:02:39.462Z,71.10
2017-10-26T08:05:06.995Z,71.10
2017-10-26T08:07:34.527Z,70.90
2017-10-26T08:10:02.858Z,70.30
2017-10-26T08:12:30.383Z,70.30
2017-10-26T08:14:58.191Z,70.10
2017-10-26T08:17:25.708Z,69.80
2017-10-26T08:19:54.004Z,69.80
2017-10-26T08:22:21.715Z,69.80
2017-10-26T08:24:49.267Z,69.50
2017-10-26T08:27:16.825Z,69.10
2017-10-26T08:29:44.341Z,68.90
2017-10-26T08:32:12.615Z,67.50
2017-10-26T08:34:40.938Z,67.60
2017-10-26T08:37:08.454Z,67.60
2017-10-26T08:39:36.364Z,67.70
2017-10-26T08:42:03.878Z,67.70
2017-10-26T08:44:32.174Z,67.80
2017-10-26T08:46:59.731Z,67.70
2017-10-26T08:49:27.260Z,67.60
2017-10-26T08:51:55.583Z,67.70
2017-10-26T08:54:23.108Z,67.70
2017-10-26T08:56:51.382Z,67.30
2017-10-26T08:59:19.687Z,67.10
2017-10-26T09:01:47.202Z,67.10
2017-10-26T09:04:14.778Z,66.80
2017-10-26T09:06:43.064Z,66.40
2017-10-26T09:09:11.365Z,66.40
2017-10-26T09:11:38.922Z,66.50
2017-10-26T09:14:06.451Z,66.40
2017-10-26T09:16:35.034Z,65.90
2017-10-26T09:19:02.549Z,65.90
2017-10-26T09:21:30.093Z,65.80
2017-10-26T09:23:57.675Z,65.30
2017-10-26T09:26:25.208Z,65.30
2017-10-26T09:28:52.791Z,65.10
2017-10-26T09:31:20.326Z,65.00
2017-10-26T09:33:47.876Z,65.00
2017-10-26T09:36:16.231Z,64.70
2017-10-26T09:38:43.786Z,64.80
2017-10-26T09:41:11.382Z,64.60
2017-10-26T09:43:38.913Z,64.40
2017-10-26T09:46:06.482Z,64.00
2017-10-26T09:48:34.814Z,63.50
2017-10-26T09:51:02.343Z,63.50
2017-10-26T09:53:29.952Z,63.40
2017-10-26T09:55:57.520Z,63.40
2017-10-26T09:58:25.067Z,63.40
2017-10-26T10:00:52.655Z,63.20
2017-10-26T10:03:20.192Z,62.90
2017-10-26T10:05:47.830Z,62.70
2017-10-26T10:08:15.379Z,63.30
2017-10-26T10:10:42.952Z,62.20
2017-10-26T10:13:10.540Z,62.00
2017-10-26T10:15:38.087Z,61.80
2017-10-26T10:18:05.998Z,61.70
2017-10-26T10:20:34.334Z,61.60
2017-10-26T10:23:01.899Z,61.70
2017-10-26T10:25:29.500Z,61.50
2017-10-26T10:27:57.835Z,61.10
2017-10-26T10:30:25.491Z,61.20
2017-10-26T10:32:53.055Z,61.20
2017-10-26T10:35:20.614Z,61.20
2017-10-26T10:37:48.230Z,61.10
2017-10-26T10:40:16.567Z,60.00
2017-10-26T10:42:44.191Z,59.90
2017-10-26T10:45:11.738Z,59.40
2017-10-26T10:47:40.048Z,58.40
2017-10-26T10:50:07.632Z,58.50
2017-10-26T10:52:35.182Z,58.10
2017-10-26T10:55:02.812Z,58.00
2017-10-26T10:57:30.363Z,58.20
2017-10-26T11:00:04.341Z,58.20
2017-10-26T11:02:31.870Z,58.30
2017-10-26T11:04:59.484Z,58.00
2017-10-26T11:07:27.827Z,57.70
2017-10-26T11:09:55.392Z,57.80
2017-10-26T11:12:22.991Z,57.80
2017-10-26T11:14:51.312Z,57.50
2017-10-26T11:17:18.887Z,57.60
2017-10-26T11:19:46.447Z,57.70
2017-10-26T11:22:14.006Z,57.60
2017-10-26T11:24:41.595Z,57.80
2017-10-26T11:27:09.171Z,57.80
2017-10-26T11:29:37.476Z,57.60
2017-10-26T11:32:05.086Z,57.70
2017-10-26T11:34:32.681Z,57.60
2017-10-26T11:37:01.044Z,57.90
2017-10-26T11:39:29.376Z,57.90
2017-10-26T11:41:57.031Z,57.90
2017-10-26T11:44:24.625Z,57.90
2017-10-26T11:46:52.202Z,57.80
2017-10-26T11:49:19.782Z,58.80
2017-10-26T11:51:47.386Z,58.60
2017-10-26T11:54:14.934Z,57.60
2017-10-26T11:56:42.522Z,57.40
2017-10-26T11:59:10.067Z,56.80
2017-10-26T12:01:37.700Z,56.20
2017-10-26T12:04:05.254Z,55.80
2017-10-26T12:06:33.566Z,55.50
2017-10-26T12:09:01.134Z,55.50
2017-10-26T12:11:28.681Z,55.20
2017-10-26T12:13:56.264Z,54.30
2017-10-26T12:16:23.873Z,54.20
2017-10-26T12:18:52.167Z,54.30
2017-10-26T12:21:19.733Z,54.30
2017-10-26T12:23:47.297Z,54.40
2017-10-26T12:26:14.867Z,54.30
2017-10-26T12:28:42.398Z,54.30
2017-10-26T12:31:09.955Z,54.10
2017-10-26T12:33:37.580Z,54.10
2017-10-26T12:36:05.124Z,54.10
2017-10-26T12:38:33.010Z,54.20
2017-10-26T12:41:00.564Z,54.40
2017-10-26T12:43:28.116Z,54.30
2017-10-26T12:45:55.724Z,54.40
2017-10-26T12:48:24.041Z,54.40
2017-10-26T12:50:51.616Z,54.40
2017-10-26T12:53:19.163Z,54.50
2017-10-26T12:55:46.739Z,54.70
2017-10-26T12:58:14.339Z,54.80
2017-10-26T13:00:42.661Z,54.80
2017-10-26T13:03:10.276Z,54.90
2017-10-26T13:05:38.606Z,54.70
2017-10-26T13:08:06.213Z,54.80
2017-10-26T13:10:33.812Z,54.70
2017-10-26T13:13:01.372Z,55.00
2017-10-26T13:15:28.944Z,54.60
2017-10-26T13:17:56.483Z,54.70
2017-10-26T13:20:24.045Z,54.70
2017-10-26T13:22:52.038Z,54.70
2017-10-26T13:25:20.415Z,54.70
2017-10-26T13:27:48.571Z,54.60
2017-10-26T13:30:16.111Z,54.50
2017-10-26T13:32:44.466Z,54.70
2017-10-26T13:35:12.070Z,54.80
2017-10-26T13:37:40.422Z,54.70
2017-10-26T13:40:08.800Z,54.60
2017-10-26T13:42:36.366Z,54.70
2017-10-26T13:45:04.719Z,54.70
2017-10-26T13:47:32.304Z,54.60
2017-10-26T13:50:00.619Z,54.70
2017-10-26T13:52:28.186Z,54.20
2017-10-26T13:54:55.742Z,54.30
2017-10-26T13:57:23.290Z,54.40
2017-10-26T13:59:50.873Z,54.40
2017-10-26T14:02:18.402Z,54.20
2017-10-26T14:04:47.053Z,54.10
2017-10-26T14:07:14.594Z,54.20
2017-10-26T14:09:42.134Z,54.00
2017-10-26T14:12:09.708Z,53.80
2017-10-26T14:14:37.261Z,53.90
2017-10-26T14:17:04.850Z,53.80
2017-10-26T14:19:32.414Z,53.90
2017-10-26T14:21:59.959Z,53.80
2017-10-26T14:24:27.607Z,53.90
2017-10-26T14:26:55.176Z,53.80
2017-10-26T14:29:22.746Z,53.70
2017-10-26T14:31:50.303Z,53.60
2017-10-26T14:34:17.861Z,53.70
2017-10-26T14:36:45.436Z,53.70
2017-10-26T14:39:13.025Z,53.70
2017-10-26T14:41:41.370Z,53.70
2017-10-26T14:44:09.010Z,53.80
2017-10-26T14:46:36.559Z,53.90
2017-10-26T14:49:04.126Z,53.90
2017-10-26T14:51:31.677Z,54.10
2017-10-26T14:53:59.286Z,54.20
2017-10-26T14:56:26.991Z,54.40
2017-10-26T14:58:54.631Z,54.40
2017-10-26T15:01:22.248Z,54.60
2017-10-26T15:03:49.812Z,54.70
2017-10-26T15:06:17.430Z,54.90
2017-10-26T15:08:45.756Z,55.20
2017-10-26T15:11:13.312Z,55.10
2017-10-26T15:13:40.924Z,55.30
2017-10-26T15:16:09.279Z,55.50
2017-10-26T15:18:36.942Z,55.50
2017-10-26T15:21:04.500Z,55.50
2017-10-26T15:23:32.034Z,55.70
2017-10-26T15:25:59.650Z,55.80
2017-10-26T15:28:27.992Z,56.00
2017-10-26T15:30:55.607Z,56.00
2017-10-26T15:33:24.492Z,56.20
2017-10-26T15:35:52.075Z,56.30
2017-10-26T15:38:19.680Z,56.60
2017-10-26T15:40:47.262Z,56.70
2017-10-26T15:43:15.144Z,57.50
2017-10-26T15:45:43.490Z,57.10
2017-10-26T15:48:11.067Z,57.20
2017-10-26T15:50:39.420Z,57.30
2017-10-26T15:53:06.955Z,57.40
2017-10-26T15:55:34.603Z,57.50
2017-10-26T15:58:02.232Z,57.60
2017-10-26T16:00:29.808Z,57.70
2017-10-26T16:02:57.403Z,57.90
2017-10-26T16:05:24.954Z,58.00
2017-10-26T16:07:52.588Z,58.10
2017-10-26T16:10:20.956Z,58.30
2017-10-26T16:12:49.324Z,58.40
2017-10-26T16:15:17.688Z,58.60
2017-10-26T16:17:46.012Z,58.70
2017-10-26T16:20:14.380Z,58.80
2017-10-26T16:22:42.701Z,59.30
2017-10-26T16:25:10.250Z,59.10
2017-10-26T16:27:37.827Z,59.20
2017-10-26T16:30:05.415Z,59.20
2017-10-26T16:32:33.011Z,59.40
2017-10-26T16:35:01.368Z,59.70
2017-10-26T16:37:28.935Z,59.70
2017-10-26T16:39:56.524Z,59.80
2017-10-26T16:42:24.129Z,60.00
2017-10-26T16:44:51.696Z,60.10
2017-10-26T16:47:19.282Z,60.20
2017-10-26T16:49:46.822Z,60.40
2017-10-26T16:52:14.484Z,60.60
2017-10-26T16:54:42.064Z,60.70
2017-10-26T16:57:09.908Z,60.80
2017-10-26T16:59:37.459Z,61.00
2017-10-26T17:02:05.025Z,61.20
2017-10-26T17:04:32.624Z,61.20
2017-10-26T17:07:00.941Z,61.30
2017-10-26T17:09:28.692Z,61.30
2017-10-26T17:11:56.275Z,61.30
2017-10-26T17:14:23.917Z,61.40
2017-10-26T17:16:51.535Z,61.50
2017-10-26T17:19:19.116Z,61.50
2017-10-26T17:21:47.495Z,61.70
2017-10-26T17:24:15.820Z,61.90
2017-10-26T17:26:43.403Z,61.90
2017-10-26T17:29:11.052Z,62.00
2017-10-26T17:31:38.649Z,62.00
2017-10-26T17:34:06.267Z,62.00
2017-10-26T17:36:33.848Z,62.10
2017-10-26T17:39:01.580Z,62.10
2017-10-26T17:41:29.203Z,62.10
2017-10-26T17:43:56.823Z,62.10
2017-10-26T17:46:24.407Z,62.40
2017-10-26T17:48:52.016Z,62.20
2017-10-26T17:51:19.979Z,62.40
2017-10-26T17:53:47.607Z,62.40
2017-10-26T17:56:15.221Z,62.40
2017-10-26T17:58:43.136Z,62.40
2017-10-26T18:01:10.700Z,62.40
2017-10-26T18:03:38.261Z,62.40
2017-10-26T18:06:05.887Z,62.40
2017-10-26T18:08:33.456Z,62.40
2017-10-26T18:11:01.166Z,62.40
2017-10-26T18:13:29.058Z,62.50
2017-10-26T18:15:56.616Z,62.60
2017-10-26T18:18:24.227Z,62.60
2017-10-26T18:20:51.957Z,62.70
2017-10-26T18:23:20.070Z,62.60
2017-10-26T18:25:47.886Z,62.60
2017-10-26T18:28:15.498Z,62.70
2017-10-26T18:30:43.126Z,62.80
2017-10-26T18:33:10.899Z,62.80
2017-10-26T18:35:38.649Z,62.80
2017-10-26T18:38:06.240Z,62.70
2017-10-26T18:40:33.936Z,62.80
2017-10-26T18:43:03.498Z,62.80
2017-10-26T18:45:31.222Z,62.80
2017-10-26T18:47:59.670Z,62.80
2017-10-26T18:50:27.708Z,62.70
2017-10-26T18:52:55.536Z,62.70
2017-10-26T18:55:23.974Z,62.80
2017-10-26T18:57:51.807Z,63.00
2017-10-26T19:00:19.459Z,62.80
2017-10-26T19:02:47.034Z,62.90
2017-10-26T19:05:14.613Z,62.90
2017-10-26T19:07:42.276Z,62.90
2017-10-26T19:10:09.868Z,63.00
2017-10-26T19:12:37.496Z,63.00
2017-10-26T19:15:05.650Z,62.90
2017-10-26T19:17:33.317Z,62.90
2017-10-26T19:20:00.886Z,63.00
2017-10-26T19:22:28.660Z,63.10
2017-10-26T19:24:56.415Z,63.10
2017-10-26T19:27:23.977Z,63.10
2017-10-26T19:29:51.529Z,63.10
2017-10-26T19:32:19.255Z,63.20
2017-10-26T19:34:46.935Z,63.10
2017-10-26T19:37:14.576Z,63.10
2017-10-26T19:39:42.136Z,63.20
2017-10-26T19:42:09.769Z,63.10
2017-10-26T19:44:37.406Z,63.20
2017-10-26T19:47:05.688Z,63.00
2017-10-26T19:49:33.699Z,63.10
2017-10-26T19:52:01.332Z,63.00
2017-10-26T19:54:28.951Z,63.10
2017-10-26T19:56:57.410Z,63.80
2017-10-26T19:59:25.048Z,63.00
2017-10-26T20:01:52.681Z,62.90
2017-10-26T20:04:20.271Z,62.90
2017-10-26T20:06:47.822Z,62.90
2017-10-26T20:09:15.517Z,62.80
2017-10-26T20:11:43.144Z,62.80
2017-10-26T20:14:10.767Z,62.80
2017-10-26T20:16:39.167Z,62.60
2017-10-26T20:19:06.759Z,62.70
2017-10-26T20:21:34.384Z,62.60
2017-10-26T20:24:02.808Z,62.40
2017-10-26T20:26:30.434Z,62.50
2017-10-26T20:28:58.760Z,62.30
2017-10-26T20:31:26.310Z,62.40
2017-10-26T20:33:53.928Z,62.30
2017-10-26T20:36:22.279Z,62.10
2017-10-26T20:38:49.901Z,62.20
2017-10-26T20:41:17.543Z,62.20
2017-10-26T20:43:45.134Z,62.20
2017-10-26T20:46:12.784Z,62.20
2017-10-26T20:48:40.344Z,62.10
2017-10-26T20:51:13.558Z,62.10
2017-10-26T20:53:46.744Z,62.10
2017-10-26T20:56:19.941Z,62.10
2017-10-26T20:58:53.094Z,62.00
2017-10-26T21:01:27.251Z,62.00
2017-10-26T21:04:00.571Z,62.00
2017-10-26T21:06:28.152Z,61.90
2017-10-26T21:09:02.261Z,61.90
2017-10-26T21:11:36.339Z,62.00
2017-10-26T21:14:09.593Z,61.90
2017-10-26T21:16:37.170Z,61.90
2017-10-26T21:19:04.745Z,61.90
2017-10-26T21:21:32.726Z,62.10
2017-10-26T21:24:00.274Z,62.10
2017-10-26T21:26:27.834Z,62.20
2017-10-26T21:28:55.415Z,62.20
2017-10-26T21:31:22.975Z,62.10
2017-10-26T21:33:52.408Z,62.10
2017-10-26T21:36:20.764Z,62.00
2017-10-26T21:38:48.411Z,62.00
2017-10-26T21:41:15.976Z,62.20
2017-10-26T21:43:43.527Z,62.20
2017-10-26T21:46:11.135Z,62.30
2017-10-26T21:48:39.493Z,62.40
2017-10-26T21:51:07.075Z,62.50
2017-10-26T21:53:35.392Z,62.60
2017-10-26T21:56:03.022Z,62.60
2017-10-26T21:58:30.592Z,62.80
2017-10-26T22:00:58.897Z,63.00
2017-10-26T22:03:26.475Z,63.10
2017-10-26T22:05:54.037Z,63.10
2017-10-26T22:08:21.606Z,63.20
2017-10-26T22:10:49.169Z,63.20
2017-10-26T22:13:16.772Z,63.20
2017-10-26T22:15:45.072Z,63.20
2017-10-26T22:18:12.651Z,63.30
2017-10-26T22:20:40.255Z,63.40
2017-10-26T22:23:07.783Z,63.40
2017-10-26T22:25:35.355Z,63.60
2017-10-26T22:28:02.904Z,63.70
2017-10-26T22:30:30.451Z,63.90
2017-10-26T22:32:58.073Z,64.00
2017-10-26T22:35:26.384Z,64.20
2017-10-26T22:37:53.962Z,64.20
2017-10-26T22:40:21.514Z,64.30
2017-10-26T22:42:49.403Z,64.50
2017-10-26T22:45:16.935Z,64.60
2017-10-26T22:47:44.505Z,64.70
2017-10-26T22:50:12.075Z,64.70
2017-10-26T22:52:39.616Z,64.80
2017-10-26T22:55:07.255Z,65.00
2017-10-26T22:57:35.552Z,65.20
2017-10-26T23:00:03.128Z,65.30
2017-10-26T23:02:30.675Z,65.30
2017-10-26T23:04:58.222Z,65.50
2017-10-26T23:07:25.792Z,65.50
2017-10-26T23:09:53.336Z,65.60
2017-10-26T23:12:20.925Z,65.60
2017-10-26T23:14:48.498Z,65.60
2017-10-26T23:17:16.061Z,65.60
2017-10-26T23:19:43.625Z,65.60
2017-10-26T23:22:11.184Z,65.70
2017-10-26T23:24:38.763Z,65.80
2017-10-26T23:27:06.312Z,65.80
2017-10-26T23:29:33.899Z,65.90
2017-10-26T23:32:01.460Z,65.90
2017-10-26T23:34:29.039Z,65.90
2017-10-26T23:36:57.349Z,66.00
2017-10-26T23:39:24.875Z,66.00
2017-10-26T23:41:53.243Z,65.90
2017-10-26T23:44:21.565Z,65.90
2017-10-26T23:46:49.155Z,66.00
2017-10-26T23:49:16.677Z,66.00
2017-10-26T23:51:44.591Z,66.00
2017-10-26T23:54:12.151Z,66.00
2017-10-26T23:56:39.680Z,66.10
2017-10-26T23:59:07.258Z,66.10
